createdAt,value
2023-07-10T04:15:09.426Z,22.00
2023-07-10T04:16:09.512Z,21.00
2023-07-10T04:17:09.654Z,19.00
2023-07-10T04:18:09.737Z,21.00
2023-07-10T04:19:09.875Z,22.00
2023-07-10T04:20:10.022Z,22.00
2023-07-10T04:21:10.161Z,25.00
2023-07-10T04:22:10.239Z,26.00
2023-07-10T04:23:10.420Z,21.00
2023-07-10T04:24:10.603Z,23.00
2023-07-10T04:25:10.626Z,31.00
2023-07-10T04:26:10.733Z,28.00
2023-07-10T04:27:10.893Z,24.00
2023-07-10T04:28:11.021Z,31.00
2023-07-10T04:29:11.140Z,37.00
2023-07-10T04:30:11.299Z,39.00
2023-07-10T04:31:11.500Z,40.00
2023-07-10T04:32:11.587Z,42.00
2023-07-10T04:33:11.715Z,48.00
2023-07-10T04:34:11.837Z,45.00
2023-07-10T04:35:12.901Z,42.00
2023-07-10T04:36:12.071Z,44.00
2023-07-10T04:37:12.241Z,42.00
2023-07-10T04:38:12.327Z,38.00
2023-07-10T04:39:12.467Z,38.00
2023-07-10T04:40:12.569Z,35.00
2023-07-10T04:41:12.699Z,36.00
2023-07-10T04:42:12.810Z,37.00
2023-07-10T04:43:12.948Z,37.00
2023-07-10T04:44:13.107Z,35.00
2023-07-10T04:45:13.224Z,45.00
2023-07-10T04:46:13.425Z,42.00
2023-07-10T04:47:13.647Z,32.00
2023-07-10T04:48:13.801Z,47.00
2023-07-10T04:49:13.851Z,43.00
2023-07-10T04:50:14.001Z,36.00
2023-07-10T04:51:14.131Z,33.00
2023-07-10T04:52:14.235Z,33.00
2023-07-10T04:53:14.356Z,32.00
2023-07-10T04:54:14.524Z,35.00
2023-07-10T04:55:14.664Z,35.00
2023-07-10T04:56:14.834Z,35.00
2023-07-10T04:57:14.926Z,36.00
2023-07-10T04:58:15.063Z,31.00
2023-07-10T04:59:15.247Z,33.00
2023-07-10T05:00:15.367Z,37.00
2023-07-10T05:01:15.505Z,35.00
2023-07-10T05:02:15.630Z,32.00
2023-07-10T05:03:15.830Z,33.00
2023-07-10T05:04:15.889Z,40.00
2023-07-10T05:05:16.011Z,45.00
2023-07-10T05:06:16.149Z,47.00
2023-07-10T05:07:16.258Z,44.00
2023-07-10T05:08:16.453Z,70.00
2023-07-10T05:09:16.609Z,52.00
2023-07-10T05:10:16.677Z,37.00
2023-07-10T05:11:16.832Z,50.00
2023-07-10T05:12:16.949Z,56.00
2023-07-10T05:13:18.106Z,45.00
2023-07-10T05:14:17.277Z,50.00
2023-07-10T05:15:17.424Z,50.00
2023-07-10T05:16:17.601Z,44.00
2023-07-10T05:17:17.709Z,47.00
2023-07-10T05:18:17.852Z,53.00
2023-07-10T05:19:17.980Z,57.00
2023-07-10T05:20:18.099Z,52.00
2023-07-10T05:21:18.232Z,58.00
2023-07-10T05:22:18.351Z,65.00
2023-07-10T05:23:19.455Z,64.00
2023-07-10T05:24:18.592Z,73.00
2023-07-10T05:25:18.768Z,77.00
2023-07-10T05:26:18.867Z,89.00
2023-07-10T05:27:19.021Z,86.00
2023-07-10T05:28:20.106Z,90.00
2023-07-10T05:29:19.237Z,143.00
2023-07-10T05:30:19.495Z,177.00
2023-07-10T05:31:19.624Z,235.00
2023-07-10T05:32:19.778Z,286.00
2023-07-10T05:33:19.893Z,409.00
2023-07-10T05:34:20.010Z,387.00
2023-07-10T05:35:20.134Z,446.00
2023-07-10T05:36:20.244Z,324.00
2023-07-10T05:37:20.352Z,278.00
2023-07-10T05:38:20.500Z,267.00
2023-07-10T05:39:20.636Z,161.00
2023-07-10T05:40:20.775Z,139.00
2023-07-10T05:41:21.007Z,155.00
2023-07-10T05:42:21.015Z,159.00
2023-07-10T05:43:21.205Z,138.00
2023-07-10T05:44:21.252Z,180.00
2023-07-10T05:45:21.400Z,305.00
2023-07-10T05:46:21.601Z,274.00
2023-07-10T05:47:21.752Z,303.00
2023-07-10T05:48:21.773Z,267.00
2023-07-10T05:49:21.892Z,240.00
2023-07-10T05:50:22.093Z,379.00
2023-07-10T05:51:22.154Z,262.00
2023-07-10T05:52:22.367Z,410.00
2023-07-10T05:53:22.393Z,410.00
2023-07-10T05:54:22.513Z,415.00
2023-07-10T05:55:22.651Z,410.00
2023-07-10T05:56:22.827Z,399.00
2023-07-10T05:57:22.907Z,381.00
2023-07-10T05:58:23.078Z,349.00
2023-07-10T05:59:23.220Z,286.00
2023-07-10T06:00:23.410Z,270.00
2023-07-10T06:01:23.538Z,264.00
2023-07-10T06:02:23.622Z,272.00
2023-07-10T06:03:23.776Z,263.00
2023-07-10T06:04:23.823Z,255.00
2023-07-10T06:05:23.917Z,295.00
2023-07-10T06:06:24.062Z,294.00
2023-07-10T06:07:24.198Z,392.00
2023-07-10T06:08:24.374Z,386.00
2023-07-10T06:09:24.495Z,450.00
2023-07-10T06:10:24.592Z,403.00
2023-07-10T06:11:24.739Z,410.00
2023-07-10T06:12:24.818Z,263.00
2023-07-10T06:13:25.025Z,451.00
2023-07-10T06:14:25.164Z,463.00
2023-07-10T06:15:26.169Z,476.00
2023-07-10T06:16:25.412Z,515.00
2023-07-10T06:17:25.553Z,562.00
2023-07-10T06:18:25.639Z,540.00
2023-07-10T06:20:41.352Z,657.00
2023-07-10T06:21:41.445Z,610.00
2023-07-10T06:22:41.571Z,582.00
2023-07-10T06:23:41.736Z,492.00
2023-07-10T06:24:41.814Z,486.00
2023-07-10T06:25:41.945Z,436.00
2023-07-10T06:26:42.053Z,417.00
2023-07-10T06:27:42.181Z,413.00
2023-07-10T06:28:42.296Z,393.00
2023-07-10T06:29:42.402Z,424.00
2023-07-10T06:30:42.546Z,486.00
2023-07-10T06:31:42.794Z,596.00
2023-07-10T06:32:42.843Z,537.00
2023-07-10T06:33:43.048Z,483.00
2023-07-10T06:34:43.082Z,637.00
2023-07-10T06:35:43.225Z,564.00
2023-07-10T06:36:43.357Z,493.00
2023-07-10T06:37:43.476Z,469.00
2023-07-10T06:38:43.606Z,535.00
2023-07-10T06:39:43.746Z,474.00
2023-07-10T06:40:43.885Z,535.00
2023-07-10T06:41:44.077Z,507.00
2023-07-10T06:42:44.231Z,591.00
2023-07-10T06:43:44.344Z,604.00
2023-07-10T06:44:44.493Z,538.00
2023-07-10T06:45:44.704Z,481.00
2023-07-10T06:46:44.775Z,494.00
2023-07-10T06:47:44.926Z,577.00
2023-07-10T06:48:45.033Z,526.00
2023-07-10T06:49:45.161Z,403.00
2023-07-10T06:50:45.385Z,450.00
2023-07-10T06:51:45.453Z,627.00
2023-07-10T06:52:45.562Z,652.00
2023-07-10T06:53:45.730Z,523.00
2023-07-10T06:54:45.840Z,381.00
2023-07-10T06:55:45.978Z,440.00
2023-07-10T06:56:46.114Z,383.00
2023-07-10T06:57:46.267Z,418.00
2023-07-10T06:58:46.452Z,558.00
2023-07-10T06:59:46.593Z,571.00
2023-07-10T07:00:46.735Z,531.00
2023-07-10T07:01:46.913Z,587.00
2023-07-10T07:02:47.031Z,594.00
2023-07-10T07:03:47.109Z,644.00
2023-07-10T07:04:47.241Z,745.00
2023-07-10T07:05:47.417Z,562.00
2023-07-10T07:06:47.539Z,776.00
2023-07-10T07:07:47.696Z,758.00
2023-07-10T07:08:47.858Z,619.00
2023-07-10T07:09:48.893Z,638.00
2023-07-10T07:10:48.114Z,488.00
2023-07-10T07:11:48.197Z,544.00
2023-07-10T07:12:48.308Z,482.00
2023-07-10T07:13:48.446Z,650.00
2023-07-10T07:14:48.561Z,571.00
2023-07-10T07:15:48.669Z,637.00
2023-07-10T07:16:48.927Z,535.00
2023-07-10T07:17:48.984Z,680.00
2023-07-10T07:18:53.566Z,668.00
2023-07-10T07:19:50.194Z,725.00
2023-07-10T07:20:49.288Z,709.00
2023-07-10T07:21:49.409Z,698.00
2023-07-10T07:22:49.715Z,637.00
2023-07-10T07:23:49.709Z,738.00
2023-07-10T07:24:49.805Z,877.00
2023-07-10T07:25:49.946Z,784.00
2023-07-10T07:26:52.404Z,805.00
2023-07-10T07:27:50.238Z,795.00
2023-07-10T07:28:50.375Z,816.00
2023-07-10T07:29:50.524Z,875.00
2023-07-10T07:30:51.504Z,842.00
2023-07-10T07:31:50.772Z,741.00
2023-07-10T07:32:51.031Z,703.00
2023-07-10T07:33:51.014Z,816.00
2023-07-10T07:34:51.123Z,825.00
2023-07-10T07:35:51.350Z,782.00
2023-07-10T07:36:51.422Z,805.00
2023-07-10T07:37:51.623Z,812.00
2023-07-10T07:38:51.747Z,798.00
2023-07-10T07:39:51.861Z,694.00
2023-07-10T07:40:52.018Z,747.00
2023-07-10T07:41:52.132Z,757.00
2023-07-10T07:42:52.300Z,782.00
2023-07-10T07:43:52.396Z,778.00
2023-07-10T07:44:52.544Z,752.00
2023-07-10T07:45:52.677Z,724.00
2023-07-10T07:46:52.882Z,719.00
2023-07-10T07:47:53.195Z,748.00
2023-07-10T07:48:53.142Z,766.00
2023-07-10T07:49:53.279Z,872.00
2023-07-10T07:50:54.378Z,943.00
2023-07-10T07:51:53.576Z,801.00
2023-07-10T07:52:53.710Z,1437.00
2023-07-10T07:53:53.822Z,1115.00
2023-07-10T07:56:09.559Z,922.00
2023-07-10T07:57:09.729Z,951.00
2023-07-10T07:58:09.754Z,823.00
2023-07-10T07:59:09.828Z,831.00
2023-07-10T08:00:09.948Z,857.00
2023-07-10T08:01:10.086Z,846.00
2023-07-10T08:02:10.232Z,802.00
2023-07-10T08:03:10.491Z,808.00
2023-07-10T08:04:10.578Z,701.00
2023-07-10T08:05:24.110Z,705.00
2023-07-10T08:06:11.712Z,1167.00
2023-07-10T08:07:10.825Z,1202.00
2023-07-10T08:08:10.999Z,1366.00
2023-07-10T08:09:11.206Z,1189.00
2023-07-10T08:10:11.293Z,1114.00
2023-07-10T08:11:11.438Z,1030.00
2023-07-10T08:12:11.554Z,1018.00
2023-07-10T08:13:11.689Z,929.00
2023-07-10T08:14:11.912Z,994.00
2023-07-10T08:15:11.910Z,1030.00
2023-07-10T08:16:12.201Z,926.00
2023-07-10T08:17:12.224Z,942.00
2023-07-10T08:18:12.380Z,1018.00
2023-07-10T08:19:12.565Z,889.00
2023-07-10T08:20:12.658Z,848.00
2023-07-10T08:21:12.829Z,723.00
2023-07-10T08:22:12.958Z,782.00
2023-07-10T08:23:13.096Z,834.00
2023-07-10T08:24:13.194Z,715.00
2023-07-10T08:25:13.341Z,757.00
2023-07-10T08:26:13.516Z,676.00
2023-07-10T08:27:13.639Z,625.00
2023-07-10T08:28:13.801Z,684.00
2023-07-10T08:29:13.951Z,834.00
2023-07-10T08:30:14.073Z,902.00
2023-07-10T08:31:14.254Z,811.00
2023-07-10T08:32:14.336Z,887.00
2023-07-10T08:33:14.514Z,926.00
2023-07-10T08:34:14.649Z,989.00
2023-07-10T08:35:14.764Z,957.00
2023-07-10T08:36:14.921Z,966.00
2023-07-10T08:37:15.068Z,869.00
2023-07-10T08:38:15.208Z,879.00
2023-07-10T08:39:15.333Z,872.00
2023-07-10T08:40:15.452Z,979.00
2023-07-10T08:41:15.565Z,1089.00
2023-07-10T08:42:15.672Z,1072.00
2023-07-10T08:43:15.826Z,992.00
2023-07-10T08:44:16.021Z,974.00
2023-07-10T08:45:17.150Z,1013.00
2023-07-10T08:46:16.289Z,1161.00
2023-07-10T08:47:16.359Z,1050.00
2023-07-10T08:48:16.451Z,1118.00
2023-07-10T08:49:16.521Z,1118.00
2023-07-10T08:50:16.699Z,962.00
2023-07-10T08:51:16.809Z,1033.00
2023-07-10T08:52:16.936Z,1002.00
2023-07-10T08:53:17.116Z,965.00
2023-07-10T08:54:17.283Z,1035.00
2023-07-10T08:55:17.342Z,833.00
2023-07-10T08:56:17.440Z,677.00
2023-07-10T08:57:17.571Z,645.00
2023-07-10T08:58:17.704Z,662.00
2023-07-10T08:59:17.819Z,884.00
2023-07-10T09:00:17.986Z,1114.00
2023-07-10T09:01:18.021Z,1001.00
2023-07-10T09:02:18.342Z,1123.00
2023-07-10T09:03:18.337Z,1107.00
2023-07-10T09:04:18.513Z,1007.00
2023-07-10T09:05:18.567Z,1102.00
2023-07-10T09:06:18.688Z,961.00
2023-07-10T09:07:18.768Z,1033.00
2023-07-10T09:08:18.954Z,945.00
2023-07-10T09:09:19.064Z,1225.00
2023-07-10T09:10:19.194Z,1116.00
2023-07-10T09:11:19.285Z,993.00
2023-07-10T09:12:19.453Z,810.00
2023-07-10T09:13:19.550Z,893.00
2023-07-10T09:14:19.748Z,1076.00
2023-07-10T09:15:19.887Z,794.00
2023-07-10T09:16:20.049Z,1295.00
2023-07-10T09:17:20.184Z,923.00
2023-07-10T09:18:20.387Z,1083.00
2023-07-10T09:19:20.511Z,1207.00
2023-07-10T09:20:20.611Z,1405.00
2023-07-10T09:21:20.667Z,1294.00
2023-07-10T09:22:20.802Z,1216.00
2023-07-10T09:23:20.957Z,1132.00
2023-07-10T09:24:22.104Z,782.00
2023-07-10T09:25:21.217Z,705.00
2023-07-10T09:26:21.357Z,699.00
2023-07-10T09:27:21.492Z,921.00
2023-07-10T09:28:21.619Z,671.00
2023-07-10T09:29:21.764Z,829.00
2023-07-10T09:30:21.905Z,873.00
2023-07-10T09:31:22.115Z,818.00
2023-07-10T09:32:22.349Z,737.00
2023-07-10T09:33:22.379Z,652.00
2023-07-10T09:34:22.511Z,746.00
2023-07-10T09:35:22.652Z,703.00
2023-07-10T10:29:41.807Z,706.00
2023-07-10T10:30:41.902Z,732.00
2023-07-10T10:31:42.063Z,783.00
2023-07-10T10:32:42.141Z,802.00
2023-07-10T10:33:42.257Z,1225.00
2023-07-10T10:34:42.398Z,949.00
2023-07-10T10:35:42.510Z,477.00
2023-07-10T10:36:42.689Z,377.00
2023-07-10T10:37:42.800Z,686.00
2023-07-10T10:38:42.931Z,729.00
2023-07-10T10:39:43.048Z,693.00
2023-07-10T10:40:43.192Z,848.00
2023-07-10T10:41:43.316Z,1167.00
2023-07-10T10:42:43.463Z,1236.00
2023-07-10T10:43:43.606Z,1103.00
2023-07-10T10:44:43.759Z,925.00
2023-07-10T10:45:43.885Z,678.00
2023-07-10T10:46:44.033Z,585.00
2023-07-10T10:47:44.289Z,938.00
2023-07-10T10:48:44.294Z,791.00
2023-07-10T10:49:44.429Z,869.00
2023-07-10T10:50:44.540Z,803.00
2023-07-10T10:51:44.658Z,640.00
2023-07-10T10:52:44.784Z,788.00
2023-07-10T10:53:44.948Z,877.00
2023-07-10T10:54:45.089Z,1560.00
2023-07-10T10:55:45.265Z,979.00
2023-07-10T10:56:45.410Z,700.00
2023-07-10T10:57:45.535Z,759.00
2023-07-10T10:58:45.700Z,1016.00
2023-07-10T10:59:45.782Z,467.00
2023-07-10T11:00:45.929Z,847.00
2023-07-10T11:01:46.143Z,1049.00
2023-07-10T11:02:46.298Z,1105.00
2023-07-10T11:03:46.342Z,1016.00
2023-07-10T11:04:46.423Z,971.00
2023-07-10T11:05:46.587Z,827.00
2023-07-10T11:06:46.717Z,850.00
2023-07-10T11:07:46.889Z,1090.00
2023-07-10T11:08:46.987Z,1497.00
2023-07-10T11:09:47.202Z,1556.00
2023-07-10T11:10:47.287Z,1429.00
2023-07-10T11:11:47.395Z,1208.00
2023-07-10T11:12:47.571Z,1271.00
2023-07-10T11:13:47.677Z,1294.00
2023-07-10T11:14:47.716Z,1810.00
2023-07-10T11:15:47.953Z,1386.00
2023-07-10T11:16:48.129Z,1000.00
2023-07-10T11:17:48.218Z,1110.00
2023-07-10T11:18:48.282Z,1470.00
2023-07-10T11:19:48.423Z,1023.00
2023-07-10T11:20:48.597Z,1196.00
2023-07-10T11:21:48.734Z,856.00
2023-07-10T11:22:49.777Z,1080.00
2023-07-10T11:23:48.955Z,1350.00
2023-07-10T11:24:51.577Z,1198.00
2023-07-10T11:25:49.243Z,1010.00
2023-07-10T11:26:49.363Z,844.00
2023-07-10T11:27:49.508Z,485.00
2023-07-10T11:29:02.160Z,1035.00
2023-07-10T11:29:50.839Z,1383.00
2023-07-10T11:30:50.970Z,920.00
2023-07-10T11:31:50.107Z,1058.00
2023-07-10T11:32:51.172Z,1338.00
2023-07-10T11:33:50.334Z,1403.00
2023-07-10T11:34:50.517Z,878.00
2023-07-10T11:35:50.570Z,732.00
2023-07-10T11:36:50.729Z,1038.00
2023-07-10T11:37:50.864Z,890.00
2023-07-10T11:38:50.950Z,798.00
2023-07-10T11:39:51.116Z,867.00
2023-07-10T11:40:51.210Z,763.00
2023-07-10T11:41:51.371Z,712.00
2023-07-10T11:42:52.434Z,1206.00
2023-07-10T11:43:51.594Z,1537.00
2023-07-10T11:44:51.761Z,1778.00
2023-07-10T11:45:51.950Z,932.00
2023-07-10T11:46:51.981Z,1122.00
2023-07-10T11:47:53.086Z,1687.00
2023-07-10T11:48:53.146Z,1825.00
2023-07-10T11:49:52.333Z,1630.00
2023-07-10T11:50:52.446Z,1586.00
2023-07-10T11:51:52.561Z,1199.00
2023-07-10T11:52:52.675Z,1048.00
2023-07-10T11:53:52.774Z,1064.00
2023-07-10T11:54:52.953Z,1822.00
2023-07-10T11:55:53.038Z,2232.00
2023-07-10T11:56:53.173Z,1261.00
2023-07-10T11:57:53.324Z,792.00
2023-07-10T11:58:53.486Z,1024.00
2023-07-10T11:59:53.886Z,1142.00
2023-07-10T12:00:53.867Z,1383.00
2023-07-10T12:01:53.943Z,1847.00
2023-07-10T12:02:54.182Z,1610.00
2023-07-10T12:03:54.255Z,1059.00
2023-07-10T12:04:54.335Z,1822.00
2023-07-10T12:05:54.502Z,1589.00
2023-07-10T12:06:54.610Z,1729.00
2023-07-10T12:07:55.518Z,2145.00
2023-07-10T12:08:54.826Z,1083.00
2023-07-10T12:09:54.941Z,2213.00
2023-07-10T12:10:55.078Z,2177.00
2023-07-10T12:11:55.191Z,1094.00
2023-07-10T12:12:55.321Z,939.00
2023-07-10T12:13:55.462Z,1647.00
2023-07-10T12:14:55.545Z,1791.00
2023-07-10T12:15:55.652Z,2029.00
2023-07-10T12:17:13.908Z,1038.00
2023-07-10T12:19:12.537Z,1067.00
2023-07-10T12:21:27.736Z,0.00
2023-07-10T12:22:27.796Z,0.00
2023-07-10T12:23:27.751Z,0.00
2023-07-10T12:24:27.841Z,0.00
2023-07-10T12:25:27.814Z,0.00
2023-07-10T12:27:17.612Z,0.00
2023-07-10T12:28:06.306Z,0.00
2023-07-10T12:28:30.465Z,0.00
2023-07-10T12:29:27.783Z,0.00
2023-07-10T12:30:27.834Z,0.00
2023-07-10T12:31:27.960Z,0.00
2023-07-10T12:32:27.852Z,0.00
2023-07-10T12:33:27.805Z,0.00
2023-07-10T12:34:27.819Z,0.00
2023-07-10T12:35:27.833Z,0.00
2023-07-10T12:36:28.778Z,0.00
2023-07-10T12:37:27.840Z,0.00
2023-07-10T12:38:27.916Z,0.00
2023-07-10T12:39:27.847Z,0.00
2023-07-10T12:40:27.883Z,0.00
2023-07-10T12:41:27.868Z,0.00
2023-07-10T12:42:27.870Z,0.00
2023-07-10T12:43:27.880Z,0.00
2023-07-10T12:44:27.902Z,0.00
2023-07-10T12:45:27.873Z,0.00
2023-07-10T12:46:27.907Z,0.00
2023-07-10T12:47:28.047Z,0.00
2023-07-10T12:48:27.948Z,0.00
2023-07-10T12:49:28.861Z,0.00
2023-07-10T12:50:27.941Z,0.00
2023-07-10T12:51:27.928Z,0.00
2023-07-10T12:52:27.953Z,0.00
2023-07-10T12:53:28.077Z,0.00
2023-07-10T12:54:28.230Z,0.00
2023-07-10T12:55:27.969Z,0.00
2023-07-10T12:56:28.097Z,0.00
2023-07-10T12:57:28.005Z,0.00
2023-07-10T12:58:27.978Z,0.00
2023-07-10T12:59:28.297Z,0.00
2023-07-10T13:00:28.755Z,0.00
2023-07-10T13:01:28.046Z,0.00
2023-07-10T13:02:28.044Z,0.00
2023-07-10T13:03:28.102Z,0.00
2023-07-10T13:04:28.034Z,0.00
2023-07-10T13:05:28.005Z,0.00
2023-07-10T13:06:28.303Z,0.00
2023-07-10T13:07:31.230Z,0.00
2023-07-10T13:08:28.012Z,0.00
2023-07-10T13:09:28.021Z,0.00
2023-07-10T13:10:28.039Z,0.00
2023-07-10T13:11:41.483Z,0.00
2023-07-10T13:12:29.067Z,0.00
2023-07-10T13:13:28.089Z,0.00
2023-07-10T13:14:28.146Z,0.00
2023-07-10T13:15:28.063Z,0.00
2023-07-10T13:16:28.123Z,0.00
2023-07-10T13:17:29.155Z,0.00
2023-07-10T13:18:28.115Z,0.00
2023-07-10T13:19:28.108Z,0.00
2023-07-10T13:20:28.103Z,0.00
2023-07-10T13:21:28.103Z,0.00
2023-07-10T13:22:28.114Z,0.00
2023-07-10T13:23:28.158Z,0.00
2023-07-10T13:24:28.148Z,0.00
2023-07-10T13:25:28.238Z,0.00
2023-07-10T13:26:28.175Z,0.00
2023-07-10T13:27:28.142Z,0.00
2023-07-10T13:28:40.074Z,0.00
2023-07-10T13:29:29.971Z,0.00
2023-07-10T13:30:28.195Z,0.00
2023-07-10T13:31:28.197Z,0.00
2023-07-10T13:32:28.292Z,0.00
2023-07-10T13:33:28.212Z,0.00
2023-07-10T13:34:28.208Z,0.00
2023-07-10T13:35:28.242Z,0.00
2023-07-10T13:36:28.387Z,0.00
2023-07-10T13:37:28.229Z,0.00
2023-07-10T13:38:28.313Z,0.00
2023-07-10T13:39:28.246Z,0.00
2023-07-10T13:40:28.267Z,0.00
2023-07-10T13:41:28.245Z,0.00
2023-07-10T13:42:28.235Z,0.00
2023-07-10T13:43:28.272Z,0.00
2023-07-10T13:44:28.340Z,0.00
2023-07-10T13:45:28.294Z,0.00
2023-07-10T13:46:28.373Z,0.00
2023-07-10T13:47:28.302Z,0.00
2023-07-10T13:48:28.489Z,0.00
2023-07-10T13:49:28.288Z,0.00
2023-07-10T13:50:28.316Z,0.00
2023-07-10T13:51:28.332Z,0.00
2023-07-10T13:52:28.314Z,0.00
2023-07-10T13:53:28.337Z,0.00
2023-07-10T13:54:28.321Z,0.00
2023-07-10T13:55:28.329Z,0.00
2023-07-10T13:56:28.332Z,0.00
2023-07-10T13:57:30.123Z,0.00
2023-07-10T13:58:29.336Z,0.00
2023-07-10T13:59:28.388Z,0.00
2023-07-10T14:00:28.382Z,0.00
2023-07-10T14:01:28.406Z,0.00
2023-07-10T14:02:28.397Z,0.00
2023-07-10T14:03:28.389Z,0.00
2023-07-10T14:04:28.529Z,0.00
2023-07-10T14:05:28.412Z,0.00
2023-07-10T14:06:28.410Z,0.00
2023-07-10T14:07:28.407Z,0.00
2023-07-10T14:08:29.399Z,0.00
2023-07-10T14:09:28.420Z,0.00
2023-07-10T14:10:28.425Z,0.00
2023-07-10T14:11:28.438Z,0.00
2023-07-10T14:12:32.859Z,0.00
2023-07-10T14:13:29.905Z,0.00
2023-07-10T14:14:28.456Z,0.00
2023-07-10T14:15:28.458Z,0.00
2023-07-10T14:16:28.526Z,0.00
2023-07-10T14:17:28.546Z,0.00
2023-07-10T14:18:28.489Z,0.00
2023-07-10T14:19:28.486Z,0.00
2023-07-10T14:20:28.491Z,0.00
2023-07-10T14:21:28.495Z,0.00
2023-07-10T14:22:28.517Z,0.00
2023-07-10T14:23:28.536Z,0.00
2023-07-10T14:24:28.528Z,0.00
2023-07-10T14:25:28.535Z,0.00
2023-07-10T14:26:28.536Z,0.00
2023-07-10T14:27:28.550Z,0.00
2023-07-10T14:28:28.545Z,0.00
2023-07-10T14:29:28.565Z,0.00
2023-07-10T14:30:28.564Z,0.00
2023-07-10T14:31:28.665Z,0.00
2023-07-10T14:32:28.630Z,0.00
2023-07-10T14:33:28.579Z,0.00
2023-07-10T14:34:28.608Z,0.00
2023-07-10T14:35:28.653Z,0.00
2023-07-10T14:36:28.629Z,0.00
2023-07-10T14:37:28.596Z,0.00
2023-07-10T14:38:28.591Z,0.00
2023-07-10T14:39:28.633Z,0.00
2023-07-10T14:40:28.628Z,0.00
2023-07-10T14:41:28.626Z,0.00
2023-07-10T14:42:28.650Z,0.00
2023-07-10T14:43:29.549Z,0.00
2023-07-10T14:44:28.633Z,0.00
2023-07-10T14:45:28.670Z,0.00
2023-07-10T14:47:44.240Z,2455.00
2023-07-10T14:48:44.306Z,1178.00
2023-07-10T14:49:44.465Z,1921.00
2023-07-10T14:50:44.572Z,2276.00
2023-07-10T14:51:44.749Z,1302.00
2023-07-10T14:52:44.871Z,1165.00
2023-07-10T14:53:44.955Z,1167.00
2023-07-10T14:54:45.125Z,2225.00
2023-07-10T14:55:45.220Z,2189.00
2023-07-10T14:56:45.322Z,1810.00
2023-07-10T14:57:45.480Z,1655.00
2023-07-10T14:58:45.601Z,1585.00
2023-07-10T14:59:45.689Z,1516.00
2023-07-10T15:00:45.859Z,1426.00
2023-07-10T15:01:46.003Z,1233.00
2023-07-10T15:02:46.095Z,1135.00
2023-07-10T15:03:46.262Z,1102.00
2023-07-10T15:04:46.305Z,1112.00
2023-07-10T15:05:46.479Z,1132.00
2023-07-10T15:06:46.678Z,1212.00
2023-07-10T15:07:46.754Z,1126.00
2023-07-10T15:08:46.850Z,1015.00
2023-07-10T15:09:47.054Z,984.00
2023-07-10T15:10:47.134Z,965.00
2023-07-10T15:11:47.236Z,949.00
2023-07-10T15:12:47.338Z,935.00
2023-07-10T15:13:47.551Z,937.00
2023-07-10T15:14:49.449Z,989.00
2023-07-10T15:15:47.731Z,769.00
2023-07-10T15:16:47.830Z,972.00
2023-07-10T15:17:47.976Z,668.00
2023-07-10T15:18:48.096Z,615.00
2023-07-10T15:19:48.193Z,679.00
2023-07-10T15:20:48.272Z,758.00
2023-07-10T15:21:48.459Z,798.00
2023-07-10T15:22:48.598Z,526.00
2023-07-10T15:23:48.779Z,546.00
2023-07-10T15:24:48.922Z,634.00
2023-07-10T15:25:49.013Z,602.00
2023-07-10T15:26:49.186Z,549.00
2023-07-10T15:27:49.358Z,852.00
2023-07-10T15:28:49.424Z,855.00
2023-07-10T15:29:49.586Z,1146.00
2023-07-10T15:30:49.680Z,1159.00
2023-07-10T15:31:49.896Z,1337.00
2023-07-10T15:32:50.036Z,1217.00
2023-07-10T15:33:50.124Z,1253.00
2023-07-10T15:34:50.338Z,978.00
2023-07-10T15:35:50.432Z,776.00
2023-07-10T15:36:50.522Z,712.00
2023-07-10T15:37:50.639Z,717.00
2023-07-10T15:38:50.776Z,686.00
2023-07-10T15:39:50.972Z,718.00
2023-07-10T15:40:51.088Z,787.00
2023-07-10T15:41:51.247Z,781.00
2023-07-10T15:42:51.368Z,924.00
2023-07-10T15:43:51.499Z,959.00
2023-07-10T15:44:51.646Z,839.00
2023-07-10T15:45:51.761Z,833.00
2023-07-10T15:46:51.889Z,837.00
2023-07-10T15:47:52.003Z,992.00
2023-07-10T15:48:52.204Z,1042.00
2023-07-10T15:49:52.226Z,1413.00
2023-07-10T15:50:52.329Z,1015.00
2023-07-10T15:51:52.451Z,940.00
2023-07-10T15:52:52.560Z,975.00
2023-07-10T15:53:52.681Z,881.00
2023-07-10T15:54:52.825Z,747.00
2023-07-10T15:55:52.954Z,610.00
2023-07-10T15:56:53.099Z,668.00
2023-07-10T15:57:53.259Z,656.00
2023-07-10T15:58:53.364Z,717.00
2023-07-10T15:59:53.461Z,820.00
2023-07-10T16:00:53.612Z,866.00
2023-07-10T16:01:53.774Z,944.00
2023-07-10T16:02:53.985Z,948.00
2023-07-10T16:03:54.007Z,914.00
2023-07-10T16:04:54.143Z,864.00
2023-07-10T16:05:54.201Z,821.00
2023-07-10T16:06:54.363Z,751.00
2023-07-10T16:07:54.530Z,622.00
2023-07-10T16:08:54.741Z,669.00
2023-07-10T16:09:54.852Z,709.00
2023-07-10T16:10:54.947Z,816.00
2023-07-10T16:11:55.077Z,909.00
2023-07-10T16:12:55.165Z,962.00
2023-07-10T16:13:55.333Z,1116.00
2023-07-10T16:14:55.389Z,907.00
2023-07-10T16:15:55.570Z,660.00
2023-07-10T16:16:55.734Z,651.00
2023-07-10T16:28:57.666Z,722.00
2023-07-10T16:29:57.844Z,700.00
2023-07-10T16:30:57.997Z,729.00
2023-07-10T16:31:58.064Z,760.00
2023-07-10T16:32:58.161Z,644.00
2023-07-10T16:33:59.241Z,447.00
2023-07-10T16:34:58.457Z,419.00
2023-07-10T16:35:58.543Z,396.00
2023-07-10T16:36:58.707Z,378.00
2023-07-10T16:37:58.889Z,361.00
2023-07-10T16:38:58.998Z,343.00
2023-07-10T16:39:59.172Z,335.00
2023-07-10T16:40:59.275Z,357.00
2023-07-10T16:41:59.405Z,397.00
2023-07-10T16:42:59.585Z,510.00
2023-07-10T16:43:59.648Z,530.00
2023-07-10T16:44:59.820Z,447.00
2023-07-10T16:45:59.930Z,394.00
2023-07-10T16:47:00.061Z,409.00
2023-07-10T16:48:00.172Z,489.00
2023-07-10T16:49:00.268Z,501.00
2023-07-10T16:50:00.378Z,592.00
2023-07-10T16:51:00.540Z,606.00
2023-07-10T16:52:00.623Z,645.00
2023-07-10T16:53:00.744Z,649.00
2023-07-10T16:54:00.888Z,786.00
2023-07-10T16:55:00.977Z,763.00
2023-07-10T16:56:01.180Z,674.00
2023-07-10T16:57:01.248Z,744.00
2023-07-10T16:58:01.415Z,686.00
2023-07-10T16:59:01.553Z,604.00
2023-07-10T17:00:01.630Z,544.00
2023-07-10T17:01:01.817Z,515.00
2023-07-10T17:02:01.969Z,483.00
2023-07-10T17:03:02.164Z,476.00
2023-07-10T17:04:02.398Z,505.00
2023-07-10T17:05:02.337Z,475.00
2023-07-10T17:06:02.520Z,438.00
2023-07-10T17:07:02.689Z,389.00
2023-07-10T17:08:02.798Z,352.00
2023-07-10T17:09:02.954Z,332.00
2023-07-10T17:10:03.125Z,306.00
2023-07-10T17:11:03.538Z,324.00
2023-07-10T17:12:03.391Z,301.00
2023-07-10T17:13:03.488Z,269.00
2023-07-10T17:14:03.722Z,284.00
2023-07-10T17:15:03.774Z,313.00
2023-07-10T17:16:03.954Z,330.00
2023-07-10T17:17:04.130Z,348.00
2023-07-10T17:18:04.189Z,413.00
2023-07-10T17:19:04.309Z,393.00
2023-07-10T17:20:04.394Z,360.00
2023-07-10T17:21:04.784Z,313.00
2023-07-10T17:22:04.691Z,280.00
2023-07-10T17:23:04.789Z,275.00
2023-07-10T17:24:04.949Z,285.00
2023-07-10T17:25:05.038Z,299.00
2023-07-10T17:26:05.176Z,311.00
2023-07-10T17:27:05.364Z,308.00
2023-07-10T17:28:05.482Z,362.00
2023-07-10T17:29:05.637Z,401.00
2023-07-10T17:30:05.773Z,404.00
2023-07-10T17:31:06.131Z,422.00
2023-07-10T17:32:05.974Z,434.00
2023-07-10T17:33:06.220Z,449.00
2023-07-10T17:34:06.327Z,492.00
2023-07-10T17:35:06.437Z,563.00
2023-07-10T17:36:06.571Z,575.00
2023-07-10T17:37:06.734Z,557.00
2023-07-10T17:38:06.844Z,447.00
2023-07-10T17:40:08.282Z,317.00
2023-07-10T17:41:07.451Z,336.00
2023-07-10T17:42:07.399Z,332.00
2023-07-10T17:43:07.486Z,304.00
2023-07-10T17:44:07.652Z,292.00
2023-07-10T17:45:07.761Z,278.00
2023-07-10T17:46:07.930Z,277.00
2023-07-10T17:47:08.018Z,281.00
2023-07-10T17:48:08.214Z,268.00
2023-07-10T17:49:08.296Z,248.00
2023-07-10T17:50:08.492Z,230.00
2023-07-10T17:51:08.601Z,217.00
2023-07-10T17:52:08.697Z,209.00
2023-07-10T17:53:08.834Z,202.00
2023-07-10T17:54:08.977Z,200.00
2023-07-10T17:55:09.061Z,191.00
2023-07-10T17:56:09.215Z,186.00
2023-07-10T17:57:09.311Z,182.00
2023-07-10T17:58:09.475Z,181.00
2023-07-10T17:59:09.674Z,195.00
2023-07-10T18:00:09.815Z,184.00
2023-07-10T18:01:09.899Z,175.00
2023-07-10T18:02:10.077Z,172.00
2023-07-10T18:03:10.242Z,171.00